Norup, Denmark
Current Conditions -  °F | °C
As of 6:50 PM on Saturday 25 Oct 2014 (Local Time) from EKBI Reporting Station
Few Clouds Few Clouds  
Wind Chill: 50°   Ceiling: Unl
Heat Index: 50°   Visibility: 6mi
Dew Point: 46°   Wind: 5mph
Humidity: 87%   Direction: 180°S
Pressure: 30"   Gusts: NA
Location:  55.72°N, 9.32°E
Report Text: EKBI 251650Z AUTO 18004KT 9999NDV FEW045/// 10/08 Q1016
Loading
Personal Weather Stations






























Interactive Weather Map
Tropical Storm Tracking
New forecast layout! Learn more

10-Day Weather Forecast

Advertisements
Track Severe Weather on mobile